createdAt,value
2019-01-29T00:03:21.057Z,63.60
2019-01-29T00:08:27.870Z,63.70
2019-01-29T00:13:35.194Z,63.70
2019-01-29T00:18:42.878Z,63.60
2019-01-29T00:23:49.108Z,63.60
2019-01-29T00:28:57.873Z,63.70
2019-01-29T00:34:04.500Z,63.70
2019-01-29T00:39:10.882Z,63.70
2019-01-29T00:44:16.764Z,63.70
2019-01-29T00:49:22.769Z,63.70
2019-01-29T00:54:28.254Z,63.80
2019-01-29T00:59:34.360Z,63.70
2019-01-29T01:04:40.881Z,63.80
2019-01-29T01:09:56.817Z,63.60
2019-01-29T01:15:00.594Z,63.70
2019-01-29T01:20:07.911Z,63.80
2019-01-29T01:25:16.232Z,63.60
2019-01-29T01:30:23.238Z,63.60
2019-01-29T01:35:30.114Z,63.70
2019-01-29T01:40:37.049Z,63.60
2019-01-29T01:45:42.762Z,63.60
2019-01-29T01:51:40.667Z,63.40
2019-01-29T01:56:46.739Z,63.70
2019-01-29T02:01:51.786Z,63.50
2019-01-29T02:06:58.271Z,63.50
2019-01-29T02:12:03.890Z,63.60
2019-01-29T02:17:09.776Z,63.60
2019-01-29T02:22:15.355Z,63.80
2019-01-29T02:27:21.666Z,63.80
2019-01-29T02:32:29.916Z,63.70
2019-01-29T02:37:35.192Z,63.80
2019-01-29T02:42:40.977Z,64.50
2019-01-29T02:47:46.099Z,63.80
2019-01-29T02:52:53.821Z,63.80
2019-01-29T02:58:01.866Z,63.90
2019-01-29T03:09:12.615Z,63.70
2019-01-29T03:14:19.987Z,63.60
2019-01-29T03:19:26.161Z,63.60
2019-01-29T03:24:32.048Z,63.60
2019-01-29T03:29:48.946Z,64.40
2019-01-29T03:34:57.669Z,63.60
2019-01-29T03:40:05.874Z,63.70
2019-01-29T03:45:14.706Z,63.60
2019-01-29T03:50:22.175Z,63.70
2019-01-29T03:55:28.679Z,63.70
2019-01-29T04:00:35.391Z,63.70
2019-01-29T04:05:41.042Z,63.70
2019-01-29T04:10:46.785Z,63.70
2019-01-29T04:15:52.167Z,63.70
2019-01-29T04:20:58.004Z,63.70
2019-01-29T04:26:28.656Z,63.70
2019-01-29T04:31:35.207Z,63.70
2019-01-29T04:36:41.046Z,63.60
2019-01-29T04:41:48.010Z,63.60
2019-01-29T04:46:53.470Z,63.60
2019-01-29T04:52:00.710Z,63.60
2019-01-29T04:57:07.277Z,63.70
2019-01-29T05:02:14.777Z,63.60
2019-01-29T05:07:20.757Z,63.50
2019-01-29T05:12:28.483Z,63.60
2019-01-29T05:17:36.048Z,63.50
2019-01-29T05:22:42.626Z,63.60
2019-01-29T05:27:49.596Z,63.60
2019-01-29T05:32:55.665Z,63.70
2019-01-29T05:38:04.069Z,63.50
2019-01-29T05:43:09.234Z,63.60
2019-01-29T05:48:15.521Z,63.60
2019-01-29T05:53:22.281Z,63.60
2019-01-29T05:58:28.629Z,63.50
2019-01-29T06:03:34.375Z,63.50
2019-01-29T06:08:40.425Z,63.60
2019-01-29T06:13:46.089Z,63.60
2019-01-29T06:18:51.484Z,63.60
2019-01-29T06:23:57.581Z,63.60
2019-01-29T06:29:03.257Z,64.40
2019-01-29T06:34:10.541Z,63.60
2019-01-29T06:39:17.129Z,63.60
2019-01-29T06:44:24.482Z,63.60
2019-01-29T06:49:31.620Z,63.60
2019-01-29T06:54:38.335Z,63.70
2019-01-29T06:59:44.780Z,63.70
2019-01-29T07:04:49.921Z,63.60
2019-01-29T07:09:56.819Z,63.60
2019-01-29T07:15:02.833Z,63.40
2019-01-29T07:20:12.973Z,63.50
2019-01-29T07:25:19.184Z,63.50
2019-01-29T07:30:25.802Z,63.60
2019-01-29T07:35:31.656Z,63.70
2019-01-29T07:40:38.386Z,63.60
2019-01-29T07:45:45.169Z,63.70
2019-01-29T07:50:51.920Z,63.70
2019-01-29T07:55:58.285Z,63.70
2019-01-29T08:01:04.145Z,63.70
2019-01-29T08:06:11.216Z,63.50
2019-01-29T08:11:19.320Z,63.50
2019-01-29T08:16:25.725Z,63.60
2019-01-29T08:21:32.589Z,63.50
2019-01-29T08:26:39.298Z,63.40
2019-01-29T08:31:45.845Z,63.60
2019-01-29T08:36:51.785Z,63.60
2019-01-29T08:41:58.348Z,63.60
2019-01-29T08:47:04.518Z,63.50
2019-01-29T08:52:11.680Z,63.70
2019-01-29T08:57:16.752Z,63.80
2019-01-29T09:02:22.704Z,63.60
2019-01-29T09:07:28.114Z,63.80
2019-01-29T09:12:34.555Z,63.70
2019-01-29T09:17:40.043Z,63.80
2019-01-29T09:22:45.345Z,63.70
2019-01-29T09:27:52.421Z,63.70
2019-01-29T09:32:57.570Z,64.60
2019-01-29T09:38:03.032Z,63.60
2019-01-29T09:43:09.317Z,63.60
2019-01-29T09:48:14.728Z,63.90
2019-01-29T09:53:20.120Z,63.70
2019-01-29T09:58:27.347Z,63.70
2019-01-29T10:03:33.224Z,63.60
2019-01-29T10:08:40.037Z,63.70
2019-01-29T10:13:46.749Z,63.60
2019-01-29T10:18:53.902Z,63.60
2019-01-29T10:23:59.587Z,63.60
2019-01-29T10:29:05.342Z,63.60
2019-01-29T10:34:10.718Z,63.50
2019-01-29T10:39:17.513Z,63.40
2019-01-29T10:44:24.333Z,63.40
2019-01-29T10:49:29.707Z,63.50
2019-01-29T10:54:37.069Z,63.50
2019-01-29T10:59:45.966Z,63.40
2019-01-29T11:04:51.750Z,63.30
2019-01-29T11:09:57.622Z,63.40
2019-01-29T11:15:02.973Z,63.30
2019-01-29T11:20:12.834Z,63.30
2019-01-29T11:25:21.576Z,63.40
2019-01-29T11:30:29.183Z,63.30
2019-01-29T11:35:35.398Z,63.20
2019-01-29T11:40:42.940Z,63.10
2019-01-29T11:45:52.209Z,63.10
2019-01-29T11:50:59.081Z,63.90
2019-01-29T11:56:05.111Z,63.20
2019-01-29T12:01:13.218Z,63.10
2019-01-29T12:06:21.080Z,63.60
2019-01-29T12:11:26.516Z,63.00
2019-01-29T12:16:32.770Z,62.60
2019-01-29T12:21:39.072Z,62.60
2019-01-29T12:26:49.079Z,62.50
2019-01-29T12:31:55.837Z,63.30
2019-01-29T12:37:02.416Z,62.40
2019-01-29T12:42:09.033Z,62.10
2019-01-29T12:47:14.663Z,62.10
2019-01-29T12:52:42.852Z,62.20
2019-01-29T12:57:49.712Z,62.20
2019-01-29T13:02:57.933Z,62.20
2019-01-29T13:08:03.912Z,62.30
2019-01-29T13:13:12.541Z,62.10
2019-01-29T13:18:17.986Z,62.20
2019-01-29T13:23:23.908Z,61.40
2019-01-29T13:28:28.982Z,61.20
2019-01-29T13:33:35.814Z,61.00
2019-01-29T13:38:43.729Z,60.90
2019-01-29T13:43:49.613Z,60.80
2019-01-29T13:48:56.428Z,61.00
2019-01-29T13:54:02.656Z,61.00
2019-01-29T13:59:09.091Z,60.80
2019-01-29T14:04:16.237Z,60.70
2019-01-29T14:09:21.958Z,60.80
2019-01-29T14:14:28.727Z,60.80
2019-01-29T14:19:33.509Z,60.70
2019-01-29T14:24:43.493Z,60.70
2019-01-29T14:29:49.026Z,60.70
2019-01-29T14:34:55.495Z,60.70
2019-01-29T14:40:21.624Z,60.50
2019-01-29T14:45:28.028Z,60.70
2019-01-29T14:50:34.641Z,60.80
2019-01-29T14:55:42.659Z,60.70
2019-01-29T15:00:50.236Z,60.80
2019-01-29T15:05:56.573Z,60.80
2019-01-29T15:11:03.294Z,60.60
2019-01-29T15:16:35.652Z,60.70
2019-01-29T15:21:41.445Z,60.80
2019-01-29T15:26:47.209Z,60.50
2019-01-29T15:31:53.982Z,60.50
2019-01-29T15:37:00.456Z,61.20
2019-01-29T15:42:06.732Z,59.80
2019-01-29T15:47:12.508Z,60.00
2019-01-29T15:52:18.072Z,60.00
2019-01-29T15:57:23.805Z,60.00
2019-01-29T16:02:29.505Z,60.10
2019-01-29T16:07:34.536Z,60.10
2019-01-29T16:12:39.934Z,60.20
2019-01-29T16:17:46.133Z,60.10
2019-01-29T16:22:52.388Z,60.20
2019-01-29T16:27:58.380Z,60.00
2019-01-29T16:33:04.342Z,60.00
2019-01-29T16:38:10.150Z,59.90
2019-01-29T16:43:15.776Z,60.00
2019-01-29T16:48:20.918Z,60.00
2019-01-29T16:53:27.406Z,60.10
2019-01-29T16:58:33.304Z,60.10
2019-01-29T17:03:40.486Z,59.90
2019-01-29T17:09:13.910Z,59.80
2019-01-29T17:14:22.060Z,59.90
2019-01-29T17:19:27.993Z,59.80
2019-01-29T17:24:35.122Z,59.90
2019-01-29T17:29:43.191Z,60.00
2019-01-29T17:34:49.990Z,59.90
2019-01-29T17:39:56.073Z,59.90
2019-01-29T17:45:01.314Z,59.80
2019-01-29T17:50:12.009Z,60.40
2019-01-29T17:55:18.955Z,60.60
2019-01-29T18:00:29.354Z,59.80
2019-01-29T18:05:39.581Z,59.80
2019-01-29T18:10:48.124Z,59.80
2019-01-29T18:15:53.791Z,59.90
2019-01-29T18:21:00.291Z,59.70
2019-01-29T18:26:12.876Z,59.70
2019-01-29T18:31:18.877Z,59.70
2019-01-29T18:36:25.885Z,59.80
2019-01-29T18:41:31.474Z,59.70
2019-01-29T18:46:38.095Z,59.70
2019-01-29T18:51:47.528Z,59.70
2019-01-29T18:56:53.803Z,59.70
2019-01-29T19:01:59.829Z,59.80
2019-01-29T19:07:07.064Z,59.70
2019-01-29T19:12:14.343Z,59.80
2019-01-29T19:17:20.514Z,59.70
2019-01-29T19:22:27.614Z,59.80
2019-01-29T19:27:33.967Z,59.70
2019-01-29T19:32:39.310Z,59.70
2019-01-29T19:37:45.485Z,59.70
2019-01-29T19:42:51.701Z,59.70
2019-01-29T19:47:59.176Z,60.40
2019-01-29T19:53:05.396Z,59.80
2019-01-29T19:58:12.709Z,59.70
2019-01-29T20:03:20.594Z,59.70
2019-01-29T20:08:26.232Z,59.70
2019-01-29T20:13:32.479Z,59.70
2019-01-29T20:18:38.937Z,59.70
2019-01-29T20:23:46.029Z,59.60
2019-01-29T20:28:53.901Z,59.60
2019-01-29T20:34:02.201Z,59.70
2019-01-29T20:39:10.950Z,59.60
2019-01-29T20:44:16.419Z,59.70
2019-01-29T20:49:22.737Z,59.60
2019-01-29T20:54:31.437Z,59.60
2019-01-29T20:59:38.324Z,59.70
2019-01-29T21:04:44.785Z,59.70
2019-01-29T21:09:50.390Z,59.70
2019-01-29T21:14:56.909Z,59.70
2019-01-29T21:20:03.416Z,59.70
2019-01-29T21:25:09.296Z,59.70
2019-01-29T21:30:22.640Z,59.70
2019-01-29T21:35:29.117Z,59.70
2019-01-29T21:40:34.920Z,59.70
2019-01-29T21:45:41.747Z,59.80
2019-01-29T21:50:48.957Z,59.70
2019-01-29T21:55:55.813Z,59.70
2019-01-29T22:01:03.228Z,60.40
2019-01-29T22:06:09.204Z,59.70
2019-01-29T22:11:15.567Z,59.60
2019-01-29T22:16:22.392Z,59.60
2019-01-29T22:21:29.484Z,59.60
2019-01-29T22:26:34.910Z,59.60
2019-01-29T22:31:42.075Z,59.60
2019-01-29T22:36:47.686Z,59.50
2019-01-29T22:41:53.496Z,59.70
2019-01-29T22:47:00.109Z,59.50
2019-01-29T22:52:06.506Z,59.50
2019-01-29T22:57:13.884Z,59.50
2019-01-29T23:02:20.041Z,59.60
2019-01-29T23:07:55.921Z,59.50
2019-01-29T23:13:02.144Z,60.20
2019-01-29T23:18:08.560Z,59.50
2019-01-29T23:23:14.305Z,59.50
2019-01-29T23:28:21.225Z,59.40
2019-01-29T23:33:29.878Z,59.40
2019-01-29T23:38:37.739Z,59.40
2019-01-29T23:43:44.308Z,59.40
2019-01-29T23:48:50.813Z,59.40
2019-01-29T23:53:57.012Z,59.40
2019-01-29T23:59:02.861Z,59.40
